createdAt,value
2022-11-28T00:03:43.766Z,1746
2022-11-28T00:09:02.950Z,1738
2022-11-28T00:14:21.930Z,1738
2022-11-28T00:19:40.424Z,1744
2022-11-28T00:25:04.570Z,1741
2022-11-28T00:30:23.076Z,1735
2022-11-28T00:35:41.827Z,1727
2022-11-28T00:41:00.591Z,1734
2022-11-28T00:46:19.521Z,1728
2022-11-28T00:51:37.687Z,1726
2022-11-28T00:56:55.848Z,1728
2022-11-28T01:02:14.430Z,1725
2022-11-28T01:07:32.988Z,1721
2022-11-28T01:12:51.109Z,1714
2022-11-28T01:18:09.958Z,1710
2022-11-28T01:23:27.903Z,1708
2022-11-28T01:28:46.668Z,1699
2022-11-28T01:34:05.593Z,1695
2022-11-28T01:39:23.778Z,1697
2022-11-28T01:44:42.738Z,1694
2022-11-28T01:50:02.143Z,1691
2022-11-28T01:55:20.590Z,1694
2022-11-28T02:00:38.848Z,1690
2022-11-28T02:05:57.627Z,1688
2022-11-28T02:11:15.803Z,1689
2022-11-28T02:16:34.663Z,1692
2022-11-28T02:21:53.238Z,1691
2022-11-28T02:27:11.434Z,1709
2022-11-28T02:32:30.187Z,1715
2022-11-28T02:37:48.816Z,1749
2022-11-28T02:43:07.287Z,1767
2022-11-28T02:48:26.028Z,1787
2022-11-28T02:53:44.631Z,1805
2022-11-28T02:59:02.841Z,1813
2022-11-28T03:04:21.319Z,1816
2022-11-28T03:09:39.811Z,1822
2022-11-28T03:14:58.285Z,1815
2022-11-28T03:20:16.749Z,1828
2022-11-28T03:25:35.996Z,1836
2022-11-28T03:30:54.281Z,1855
2022-11-28T03:36:12.773Z,1862
2022-11-28T03:41:31.346Z,1849
2022-11-28T03:46:49.574Z,1837
2022-11-28T03:52:08.003Z,1835
2022-11-28T03:57:26.225Z,1838
2022-11-28T04:02:45.012Z,1838
2022-11-28T04:08:03.553Z,1840
2022-11-28T04:13:22.357Z,1843
2022-11-28T04:18:40.653Z,1852
2022-11-28T04:23:58.883Z,1856
2022-11-28T04:29:17.741Z,1859
2022-11-28T04:34:36.205Z,1865
2022-11-28T04:39:54.702Z,1868
2022-11-28T04:45:13.551Z,1874
2022-11-28T04:50:32.045Z,1873
2022-11-28T04:55:50.493Z,1869
2022-11-28T05:01:09.174Z,1870
2022-11-28T05:06:27.307Z,1869
2022-11-28T05:11:45.546Z,1873
2022-11-28T05:17:03.853Z,1865
2022-11-28T05:22:22.394Z,1871
2022-11-28T05:27:41.183Z,1901
2022-11-28T05:33:00.206Z,1888
2022-11-28T05:38:18.751Z,1898
2022-11-28T05:43:36.981Z,1835
2022-11-28T05:48:56.192Z,1838
2022-11-28T05:54:14.737Z,1817
2022-11-28T05:59:33.523Z,1771
2022-11-28T06:04:52.722Z,1779
2022-11-28T06:10:11.331Z,1774
2022-11-28T06:15:32.617Z,1760
2022-11-28T06:20:56.493Z,1748
2022-11-28T06:26:14.682Z,1739
2022-11-28T06:31:32.953Z,1732
2022-11-28T06:36:35.776Z,1747
2022-11-28T06:41:54.546Z,1749
2022-11-28T06:47:12.731Z,1739
2022-11-28T06:52:31.561Z,1736
2022-11-28T06:57:50.016Z,1735
2022-11-28T07:03:08.519Z,1754
2022-11-28T07:08:27.016Z,1752
2022-11-28T07:13:45.460Z,1752
2022-11-28T07:19:03.668Z,1753
2022-11-28T07:24:22.283Z,1750
2022-11-28T07:29:41.080Z,1750
2022-11-28T07:35:00.574Z,1705
2022-11-28T07:40:19.331Z,1679
2022-11-28T07:45:59.177Z,1422
2022-11-28T07:51:20.091Z,1551
2022-11-28T07:57:11.135Z,1614
2022-11-28T08:02:31.694Z,1699
2022-11-28T08:07:50.618Z,1750
2022-11-28T08:13:08.782Z,1764
2022-11-28T08:18:26.657Z,1751
2022-11-28T08:23:45.462Z,1734
2022-11-28T08:29:03.955Z,1709
2022-11-28T08:34:22.419Z,1690
2022-11-28T08:39:41.169Z,1662
2022-11-28T08:45:00.740Z,1636
2022-11-28T08:50:19.284Z,1621
2022-11-28T08:55:40.651Z,1618
2022-11-28T09:00:59.993Z,1600
2022-11-28T09:06:18.378Z,1593
2022-11-28T09:11:36.880Z,1581
2022-11-28T09:16:55.420Z,1561
2022-11-28T09:22:13.612Z,1549
2022-11-28T09:27:32.370Z,1535
2022-11-28T09:32:53.817Z,1523
2022-11-28T09:38:11.975Z,1512
2022-11-28T09:43:30.470Z,1505
2022-11-28T09:48:48.739Z,1495
2022-11-28T09:54:06.910Z,1473
2022-11-28T09:59:25.136Z,1459
2022-11-28T10:04:43.914Z,1448
2022-11-28T10:10:02.355Z,1436
2022-11-28T10:15:20.606Z,1449
2022-11-28T10:20:39.098Z,1428
2022-11-28T10:25:57.061Z,1396
2022-11-28T10:31:15.288Z,1387
2022-11-28T10:36:33.373Z,1373
2022-11-28T10:41:51.559Z,1362
2022-11-28T10:47:10.311Z,1351
2022-11-28T10:52:28.663Z,1342
2022-11-28T10:57:47.134Z,1316
2022-11-28T11:03:05.883Z,1298
2022-11-28T11:08:24.320Z,1290
2022-11-28T11:13:42.634Z,1265
2022-11-28T11:19:01.433Z,1261
2022-11-28T11:24:19.706Z,1251
2022-11-28T11:29:37.873Z,1242
2022-11-28T11:34:56.375Z,1238
2022-11-28T11:40:14.928Z,1238
2022-11-28T11:45:33.709Z,1226
2022-11-28T11:50:51.627Z,1236
2022-11-28T11:56:10.127Z,1236
2022-11-28T12:01:28.308Z,1235
2022-11-28T12:06:46.566Z,1223
2022-11-28T12:12:04.794Z,1206
2022-11-28T12:17:47.680Z,1193
2022-11-28T12:23:17.663Z,1188
2022-11-28T12:28:35.773Z,1178
2022-11-28T12:33:53.959Z,1169
2022-11-28T12:39:12.792Z,1160
2022-11-28T12:44:30.845Z,1147
2022-11-28T12:49:49.314Z,1134
2022-11-28T12:55:07.799Z,1126
2022-11-28T13:00:26.057Z,1124
2022-11-28T13:05:44.240Z,1119
2022-11-28T13:11:02.826Z,1117
2022-11-28T13:16:26.581Z,1107
2022-11-28T13:21:45.654Z,1098
2022-11-28T13:27:03.857Z,1088
2022-11-28T13:32:22.224Z,1085
2022-11-28T13:44:12.314Z,1075
2022-11-28T13:49:30.857Z,1066
2022-11-28T13:54:49.716Z,1066
2022-11-28T14:00:08.375Z,1065
2022-11-28T14:05:26.901Z,1059
2022-11-28T14:10:45.418Z,1049
2022-11-28T14:16:03.915Z,1042
2022-11-28T14:21:22.002Z,1034
2022-11-28T14:26:40.222Z,1027
2022-11-28T14:32:28.279Z,1019
2022-11-28T14:37:49.659Z,1019
2022-11-28T14:43:07.693Z,1016
2022-11-28T14:48:26.541Z,1013
2022-11-28T14:53:44.795Z,1045
2022-11-28T14:59:03.054Z,1080
2022-11-28T15:04:21.528Z,1085
2022-11-28T15:09:40.067Z,1081
2022-11-28T15:14:58.813Z,1078
2022-11-28T15:20:17.320Z,1076
2022-11-28T15:25:35.821Z,1076
2022-11-28T15:30:54.278Z,1079
2022-11-28T15:36:12.749Z,1082
2022-11-28T15:41:31.529Z,1087
2022-11-28T15:46:50.045Z,1085
2022-11-28T15:52:08.183Z,1079
2022-11-28T15:57:26.428Z,1083
2022-11-28T16:02:44.591Z,1081
2022-11-28T16:08:03.149Z,1093
2022-11-28T16:13:30.932Z,1086
2022-11-28T16:18:49.663Z,1090
2022-11-28T16:24:07.601Z,1119
2022-11-28T16:29:29.403Z,1148
2022-11-28T16:34:53.344Z,1171
2022-11-28T16:40:12.074Z,1179
2022-11-28T16:45:31.041Z,1174
2022-11-28T16:50:49.577Z,1178
2022-11-28T16:56:07.519Z,1166
2022-11-28T17:01:25.766Z,1155
2022-11-28T17:06:44.177Z,1146
2022-11-28T17:12:02.669Z,1136
2022-11-28T17:17:20.883Z,1129
2022-11-28T17:22:41.147Z,1123
2022-11-28T17:27:59.912Z,1117
2022-11-28T17:33:17.863Z,1109
2022-11-28T17:38:36.060Z,1104
2022-11-28T17:43:54.282Z,1089
2022-11-28T17:49:13.092Z,1072
2022-11-28T17:54:31.598Z,1047
2022-11-28T17:59:50.370Z,1019
2022-11-28T18:05:09.168Z,1009
2022-11-28T18:10:27.655Z,1003
2022-11-28T18:15:46.407Z,1012
2022-11-28T18:21:05.121Z,1015
2022-11-28T18:26:23.334Z,1017
2022-11-28T18:31:41.588Z,1022
2022-11-28T18:36:50.093Z,1038
2022-11-28T18:42:08.263Z,1046
2022-11-28T18:47:26.741Z,1061
2022-11-28T18:52:45.020Z,1079
2022-11-28T18:58:03.488Z,1038
2022-11-28T19:03:22.251Z,1108
2022-11-28T19:08:40.498Z,1176
2022-11-28T19:13:59.194Z,1200
2022-11-28T19:19:17.129Z,1211
2022-11-28T19:24:35.923Z,1209
2022-11-28T19:29:54.112Z,1214
2022-11-28T19:35:12.866Z,1214
2022-11-28T19:40:31.373Z,1224
2022-11-28T19:45:50.158Z,1232
2022-11-28T19:51:08.661Z,1242
2022-11-28T19:56:27.192Z,1256
2022-11-28T20:01:45.501Z,1269
2022-11-28T20:07:04.474Z,1267
2022-11-28T20:12:23.262Z,1272
2022-11-28T20:17:41.710Z,1269
2022-11-28T20:23:00.501Z,1272
2022-11-28T20:28:19.057Z,1285
2022-11-28T20:33:37.808Z,1290
2022-11-28T20:38:56.276Z,1292
2022-11-28T20:44:14.266Z,1297
2022-11-28T20:49:32.439Z,1302
2022-11-28T20:54:50.944Z,1342
2022-11-28T21:00:09.496Z,1356
2022-11-28T21:05:28.234Z,1363
2022-11-28T21:10:46.466Z,1372
2022-11-28T21:16:04.805Z,1390
2022-11-28T21:21:23.279Z,1418
2022-11-28T21:26:45.219Z,1444
2022-11-28T21:32:12.745Z,1464
2022-11-28T21:37:31.498Z,1512
2022-11-28T21:42:49.979Z,1542
2022-11-28T21:48:08.202Z,1681
2022-11-28T21:53:26.411Z,1760
2022-11-28T21:58:44.609Z,1769
2022-11-28T22:04:03.368Z,1752
2022-11-28T22:09:21.629Z,1727
2022-11-28T22:14:39.577Z,1699
2022-11-28T22:19:57.839Z,1691
2022-11-28T22:25:16.576Z,1694
2022-11-28T22:30:35.107Z,1708
2022-11-28T22:35:53.335Z,1716
2022-11-28T22:41:12.096Z,1737
2022-11-28T22:46:30.840Z,1749
2022-11-28T22:51:49.140Z,1744
2022-11-28T22:57:07.624Z,1737
2022-11-28T23:02:25.913Z,1729
2022-11-28T23:07:45.102Z,1727
2022-11-28T23:13:03.883Z,1719
2022-11-28T23:18:22.674Z,1717
2022-11-28T23:23:41.441Z,1722
2022-11-28T23:28:59.657Z,1722
2022-11-28T23:34:17.607Z,1735
2022-11-28T23:39:35.808Z,1732
2022-11-28T23:44:53.738Z,1727
2022-11-28T23:50:12.218Z,1725
2022-11-28T23:55:31.013Z,1727
